Time;durP1;ratioP1;P1;durP2;ratioP2;P2;SDS_P1;SDS_P2;PMS_P1;PMS_P2;Temp;Humidity;BMP_temperature;BMP_pressure;BME280_temperature;BME280_humidity;BME280_pressure;Samples;Min_cycle;Max_cycle;Signal;HPM_P1;HPM_P2
2022/03/03 00:00:20;;;;;;;42.40;34.97;;;2.50;99.90;;;;;;5035814;28;20128;-72
2022/03/03 00:02:46;;;;;;;42.58;34.92;;;2.50;99.90;;;;;;5053436;28;20057;-72
2022/03/03 00:05:13;;;;;;;41.53;34.47;;;2.40;99.90;;;;;;5053359;28;20052;-72
2022/03/03 00:07:39;;;;;;;41.28;34.65;;;2.40;99.90;;;;;;5053618;28;20044;-72
2022/03/03 00:10:07;;;;;;;40.33;33.92;;;2.40;99.90;;;;;;5053733;28;20119;-72
2022/03/03 00:12:33;;;;;;;40.72;34.25;;;2.40;99.90;;;;;;5053131;28;20510;-72
2022/03/03 00:14:59;;;;;;;38.92;33.10;;;2.40;99.90;;;;;;5053498;28;20041;-72
2022/03/03 00:17:24;;;;;;;39.05;33.65;;;2.30;99.90;;;;;;5052913;28;20084;-72
2022/03/03 00:19:50;;;;;;;41.38;34.22;;;2.30;99.90;;;;;;5053479;28;20132;-72
2022/03/03 00:22:16;;;;;;;40.90;34.15;;;2.30;99.90;;;;;;5052887;28;20514;-72
2022/03/03 00:24:43;;;;;;;40.22;34.42;;;2.30;99.90;;;;;;5053306;28;20051;-72
2022/03/03 00:27:09;;;;;;;39.67;33.45;;;2.20;99.90;;;;;;5053237;28;20128;-72
2022/03/03 00:29:35;;;;;;;40.78;33.95;;;2.10;99.90;;;;;;5052907;28;20076;-72
2022/03/03 00:32:00;;;;;;;39.75;33.55;;;2.10;99.90;;;;;;5053338;28;20482;-72
2022/03/03 00:34:26;;;;;;;39.90;33.45;;;2.10;99.90;;;;;;5053057;28;20614;-72
2022/03/03 00:36:52;;;;;;;42.15;34.17;;;2.10;99.90;;;;;;5053340;28;20056;-72
2022/03/03 00:39:18;;;;;;;41.53;34.80;;;2.00;99.90;;;;;;5035163;28;20052;-72
2022/03/03 00:41:44;;;;;;;40.35;34.53;;;2.00;99.90;;;;;;5053029;28;20099;-72
2022/03/03 00:44:10;;;;;;;39.85;34.20;;;2.00;99.90;;;;;;5053059;28;20131;-72
2022/03/03 00:46:39;;;;;;;38.28;32.95;;;1.90;99.90;;;;;;5034894;28;20166;-72
2022/03/03 00:49:06;;;;;;;41.80;34.55;;;1.90;99.90;;;;;;5052959;28;20061;-72
2022/03/03 00:51:31;;;;;;;41.50;34.53;;;1.90;99.90;;;;;;5052332;28;20057;-74
2022/03/03 00:53:58;;;;;;;41.03;35.17;;;1.80;99.90;;;;;;5052924;28;20102;-72
2022/03/03 00:56:24;;;;;;;40.00;34.05;;;1.80;99.90;;;;;;5034371;28;20047;-72
2022/03/03 00:58:50;;;;;;;40.65;33.35;;;1.70;99.90;;;;;;5053155;28;20041;-72
2022/03/03 01:01:16;;;;;;;40.90;34.38;;;1.70;99.90;;;;;;5052648;28;20504;-72
2022/03/03 01:03:43;;;;;;;38.60;33.63;;;1.70;99.90;;;;;;5052802;28;20066;-72
2022/03/03 01:06:10;;;;;;;41.40;34.03;;;1.70;99.90;;;;;;5052834;28;20080;-72
2022/03/03 01:08:36;;;;;;;42.55;34.97;;;1.60;99.90;;;;;;5052256;28;20055;-72
2022/03/03 01:11:02;;;;;;;37.08;33.03;;;1.60;99.90;;;;;;5052638;28;20040;-72
2022/03/03 01:13:28;;;;;;;38.78;33.80;;;1.70;99.90;;;;;;5052260;28;20049;-72
2022/03/03 01:15:54;;;;;;;41.33;34.72;;;1.60;99.90;;;;;;5052505;28;20049;-72
2022/03/03 01:18:20;;;;;;;38.88;34.05;;;1.60;99.90;;;;;;5052150;28;20107;-72
2022/03/03 01:20:46;;;;;;;39.40;34.22;;;1.50;99.90;;;;;;5052550;28;20052;-72
2022/03/03 01:23:12;;;;;;;40.40;34.63;;;1.50;99.90;;;;;;5052565;28;20045;-72
2022/03/03 01:25:38;;;;;;;39.30;33.80;;;1.50;99.90;;;;;;5052133;28;20045;-72
2022/03/03 01:28:04;;;;;;;40.13;34.30;;;1.50;99.90;;;;;;5052454;28;20077;-72
2022/03/03 01:30:30;;;;;;;38.55;33.67;;;1.50;99.90;;;;;;5052085;28;20053;-72
2022/03/03 01:32:56;;;;;;;39.15;33.60;;;1.50;99.90;;;;;;5052522;28;20053;-72
2022/03/03 01:35:21;;;;;;;39.22;33.35;;;1.40;99.90;;;;;;5034649;28;20387;-72
2022/03/03 01:37:47;;;;;;;40.63;34.63;;;1.40;99.90;;;;;;5052268;28;20123;-72
2022/03/03 01:40:13;;;;;;;40.63;34.40;;;1.40;99.90;;;;;;5052402;28;20106;-72
2022/03/03 01:42:39;;;;;;;38.28;33.08;;;1.40;99.90;;;;;;5051872;28;20045;-72
2022/03/03 01:45:06;;;;;;;39.70;34.92;;;1.40;99.90;;;;;;5052422;28;20055;-72
2022/03/03 01:47:32;;;;;;;39.58;33.85;;;1.30;99.90;;;;;;5051616;28;20127;-72
2022/03/03 01:49:58;;;;;;;37.63;33.05;;;1.30;99.90;;;;;;5051953;28;20144;-72
2022/03/03 01:52:24;;;;;;;39.60;33.88;;;1.30;99.90;;;;;;5051958;28;20397;-72
2022/03/03 01:54:50;;;;;;;39.70;33.90;;;1.30;99.90;;;;;;5052287;28;20044;-72
2022/03/03 01:57:18;;;;;;;40.50;33.45;;;1.30;99.90;;;;;;5052247;28;20049;-72
2022/03/03 01:59:45;;;;;;;38.55;33.55;;;1.20;99.90;;;;;;5051763;28;20052;-72
2022/03/03 02:02:11;;;;;;;38.67;33.42;;;1.20;99.90;;;;;;5053265;28;20502;-72
2022/03/03 02:04:38;;;;;;;40.95;34.03;;;1.20;99.90;;;;;;5055307;28;20087;-72
2022/03/03 02:07:05;;;;;;;37.00;32.85;;;1.20;99.90;;;;;;5055913;28;20037;-72
2022/03/03 02:09:31;;;;;;;40.60;34.45;;;1.20;99.90;;;;;;5055380;28;20045;-72
2022/03/03 02:11:56;;;;;;;40.17;33.38;;;1.20;99.90;;;;;;5055887;28;20041;-72
2022/03/03 02:14:22;;;;;;;38.20;32.13;;;1.20;99.90;;;;;;5055957;28;20052;-71
2022/03/03 02:16:48;;;;;;;39.88;34.80;;;1.10;99.90;;;;;;5055227;28;20077;-72
2022/03/03 02:19:18;;;;;;;40.85;34.13;;;1.10;99.90;;;;;;5055681;28;20500;-72
2022/03/03 02:21:49;;;;;;;37.70;33.55;;;1.10;99.90;;;;;;5055380;28;20049;-72
2022/03/03 02:24:15;;;;;;;38.97;34.08;;;1.10;99.90;;;;;;5055683;28;20049;-72
2022/03/03 02:26:42;;;;;;;37.97;33.85;;;1.10;99.90;;;;;;5055066;28;20045;-72
2022/03/03 02:29:08;;;;;;;41.50;34.50;;;1.10;99.90;;;;;;5055654;28;20141;-72
2022/03/03 02:31:36;;;;;;;38.30;33.95;;;1.00;99.90;;;;;;5054997;28;20132;-72
2022/03/03 02:34:02;;;;;;;39.85;34.35;;;1.00;99.90;;;;;;5055570;28;20084;-72
2022/03/03 02:36:29;;;;;;;41.25;34.63;;;0.90;99.90;;;;;;5054676;28;20486;-72
2022/03/03 02:39:01;;;;;;;42.22;34.72;;;0.90;99.90;;;;;;5055470;28;20106;-72
2022/03/03 02:41:27;;;;;;;40.90;34.70;;;0.90;99.90;;;;;;5055405;28;20120;-72
2022/03/03 02:43:53;;;;;;;41.03;35.17;;;0.90;99.90;;;;;;5054995;28;20110;-72
2022/03/03 02:46:19;;;;;;;36.92;32.90;;;0.80;99.90;;;;;;5055233;28;20163;-72
2022/03/03 02:48:45;;;;;;;41.05;35.10;;;0.80;99.90;;;;;;5054653;28;20136;-72
2022/03/03 02:51:12;;;;;;;40.80;34.28;;;0.80;99.90;;;;;;5054835;28;20057;-72
2022/03/03 02:53:38;;;;;;;40.05;34.50;;;0.80;99.90;;;;;;5036937;28;20080;-72
2022/03/03 02:56:05;;;;;;;39.72;33.20;;;0.80;99.90;;;;;;5054965;28;20080;-72
2022/03/03 02:58:31;;;;;;;40.92;35.10;;;0.70;99.90;;;;;;5054449;28;20494;-73
2022/03/03 03:00:59;;;;;;;40.30;35.20;;;0.80;99.90;;;;;;5055230;28;20142;-72
2022/03/03 03:03:24;;;;;;;38.78;34.25;;;0.80;99.90;;;;;;5054767;28;20383;-72
2022/03/03 03:05:50;;;;;;;38.88;33.90;;;0.80;99.90;;;;;;5054447;28;20106;-72
2022/03/03 03:08:16;;;;;;;40.45;34.70;;;0.70;99.90;;;;;;5054764;28;20128;-71
2022/03/03 03:10:42;;;;;;;42.63;35.00;;;0.70;99.90;;;;;;5054406;28;20549;-72
2022/03/03 03:13:12;;;;;;;40.30;34.45;;;0.60;99.90;;;;;;5053833;28;20045;-71
2022/03/03 03:15:38;;;;;;;44.90;36.30;;;0.60;99.90;;;;;;5054120;28;20045;-72
2022/03/03 03:18:20;;;;;;;40.65;34.53;;;0.60;99.90;;;;;;5054514;28;20124;-72
2022/03/03 03:20:48;;;;;;;41.55;35.58;;;0.60;99.90;;;;;;5054231;28;20084;-72
2022/03/03 03:23:15;;;;;;;43.45;35.55;;;0.50;99.90;;;;;;5054549;28;20052;-72
2022/03/03 03:25:43;;;;;;;39.47;35.17;;;0.50;99.90;;;;;;5053798;28;20473;-72
2022/03/03 03:28:13;;;;;;;41.15;35.88;;;0.50;99.90;;;;;;5054548;28;20060;-72
2022/03/03 03:30:40;;;;;;;39.83;35.22;;;0.50;99.90;;;;;;5036345;28;20041;-72
2022/03/03 03:33:07;;;;;;;42.33;35.10;;;0.50;99.90;;;;;;5054356;28;20402;-71
2022/03/03 03:35:33;;;;;;;40.97;35.28;;;0.50;99.90;;;;;;5054385;28;20052;-71
2022/03/03 03:37:59;;;;;;;39.72;35.17;;;0.50;99.90;;;;;;5053785;28;20037;-71
2022/03/03 03:40:25;;;;;;;38.67;33.97;;;0.60;99.90;;;;;;5054281;28;20111;-72
2022/03/03 03:42:51;;;;;;;40.90;36.25;;;0.40;99.90;;;;;;5053477;28;20124;-72
2022/03/03 03:45:17;;;;;;;40.30;35.95;;;0.40;99.90;;;;;;5054261;28;20047;-71
2022/03/03 03:47:43;;;;;;;42.85;35.55;;;0.50;99.90;;;;;;5053618;28;20175;-71
2022/03/03 03:50:12;;;;;;;40.42;35.33;;;0.50;99.90;;;;;;5054141;28;20139;-71
2022/03/03 03:52:39;;;;;;;40.30;35.13;;;0.60;99.90;;;;;;5053711;28;20055;-72
2022/03/03 03:55:07;;;;;;;41.35;36.00;;;0.60;99.90;;;;;;5054286;28;20041;-71
2022/03/03 03:57:33;;;;;;;40.42;35.97;;;0.60;99.90;;;;;;5053771;28;20401;-71
2022/03/03 03:59:59;;;;;;;42.37;35.63;;;0.60;99.90;;;;;;5053480;28;20045;-72
2022/03/03 04:02:24;;;;;;;41.20;35.10;;;0.50;99.90;;;;;;5053786;28;20072;-71
2022/03/03 04:04:50;;;;;;;40.63;35.67;;;0.50;99.90;;;;;;5035763;28;20048;-72
2022/03/03 04:07:16;;;;;;;40.35;34.67;;;0.50;99.90;;;;;;5053798;28;20124;-71
2022/03/03 04:09:42;;;;;;;40.50;35.63;;;0.50;99.90;;;;;;5053154;28;20048;-71
2022/03/03 04:12:08;;;;;;;38.63;34.23;;;0.50;99.90;;;;;;5035836;28;20052;-71
2022/03/03 04:14:34;;;;;;;39.90;34.38;;;0.50;99.90;;;;;;5053607;28;20051;-71
2022/03/03 04:16:59;;;;;;;41.07;35.07;;;0.50;99.90;;;;;;5052902;28;20675;-71
2022/03/03 04:19:25;;;;;;;42.90;36.20;;;0.60;99.90;;;;;;5035978;28;20066;-71
2022/03/03 04:21:51;;;;;;;39.22;34.97;;;0.60;99.90;;;;;;5035115;28;20123;-71
2022/03/03 04:24:17;;;;;;;38.50;34.23;;;0.60;99.90;;;;;;5053418;28;20060;-71
2022/03/03 04:26:42;;;;;;;37.63;33.53;;;0.60;99.90;;;;;;5053076;28;20120;-73
2022/03/03 04:29:08;;;;;;;38.90;34.50;;;0.60;99.90;;;;;;5053308;28;20048;-71
2022/03/03 04:31:34;;;;;;;39.60;33.60;;;0.60;99.90;;;;;;5053136;28;20045;-71
2022/03/03 04:34:00;;;;;;;37.13;33.05;;;0.70;99.90;;;;;;5052365;28;20122;-71
2022/03/03 04:36:25;;;;;;;37.40;33.23;;;0.70;99.90;;;;;;5053099;28;20041;-70
2022/03/03 04:38:51;;;;;;;35.70;31.77;;;0.70;99.90;;;;;;5052828;28;20462;-72
2022/03/03 04:41:17;;;;;;;37.37;33.17;;;0.70;99.90;;;;;;5053145;28;20493;-71
2022/03/03 04:43:43;;;;;;;36.83;32.93;;;0.80;99.90;;;;;;5052885;28;20045;-73
2022/03/03 04:46:09;;;;;;;37.10;33.03;;;0.80;99.90;;;;;;5052713;28;20051;-72
2022/03/03 04:48:35;;;;;;;37.27;32.60;;;0.80;99.90;;;;;;5033183;28;20061;-70
2022/03/03 04:51:02;;;;;;;38.23;32.90;;;0.80;99.90;;;;;;5034605;28;20071;-71
2022/03/03 04:53:29;;;;;;;36.95;32.95;;;0.70;99.90;;;;;;5052889;28;20049;-71
2022/03/03 04:55:56;;;;;;;38.13;33.97;;;0.60;99.90;;;;;;5034750;28;20045;-71
2022/03/03 04:58:22;;;;;;;36.08;32.00;;;0.60;99.90;;;;;;5052775;28;20056;-71
2022/03/03 05:00:47;;;;;;;36.90;31.53;;;0.60;99.90;;;;;;5052379;28;20041;-73
2022/03/03 05:03:14;;;;;;;35.47;31.60;;;0.60;99.90;;;;;;5052909;28;20053;-71
2022/03/03 05:05:39;;;;;;;36.27;32.37;;;0.60;99.90;;;;;;5052704;28;20064;-71
2022/03/03 05:08:05;;;;;;;36.90;32.90;;;0.50;99.90;;;;;;5052336;28;20044;-71
2022/03/03 05:10:31;;;;;;;36.67;32.67;;;0.40;99.90;;;;;;5052544;28;20052;-72
2022/03/03 05:12:57;;;;;;;36.35;32.40;;;0.40;99.90;;;;;;5052229;28;20041;-71
2022/03/03 05:15:24;;;;;;;36.38;32.50;;;0.40;99.90;;;;;;5052422;28;20474;-71
2022/03/03 05:17:49;;;;;;;37.07;33.00;;;0.30;99.90;;;;;;5052147;28;20047;-72
2022/03/03 05:20:15;;;;;;;36.58;32.78;;;0.30;99.90;;;;;;5052626;28;20049;-72
2022/03/03 05:22:41;;;;;;;37.80;33.60;;;0.20;99.90;;;;;;5052497;28;20474;-72
2022/03/03 05:25:08;;;;;;;37.20;32.38;;;0.20;99.90;;;;;;5052297;28;20048;-72
2022/03/03 05:27:34;;;;;;;35.73;31.83;;;0.20;99.90;;;;;;5035094;28;20486;-72
2022/03/03 05:30:00;;;;;;;36.78;32.78;;;0.10;99.90;;;;;;5052187;28;20087;-72
2022/03/03 05:32:26;;;;;;;37.57;33.53;;;0.10;99.90;;;;;;5052555;28;20084;-72
2022/03/03 05:34:52;;;;;;;37.30;32.37;;;0.10;99.90;;;;;;5052035;28;20049;-72
2022/03/03 05:37:23;;;;;;;36.07;32.20;;;0.10;99.90;;;;;;5053754;28;20128;-72
2022/03/03 05:39:49;;;;;;;37.20;33.10;;;0.10;99.90;;;;;;5038687;28;20111;-72
2022/03/03 05:42:15;;;;;;;36.17;32.37;;;0.00;99.90;;;;;;5055878;28;20049;-72
2022/03/03 05:44:42;;;;;;;37.57;33.53;;;0.10;99.90;;;;;;5056497;28;20049;-72
2022/03/03 05:47:07;;;;;;;37.13;32.90;;;0.00;99.90;;;;;;5055916;28;20045;-72
2022/03/03 05:49:33;;;;;;;36.93;33.03;;;0.00;99.90;;;;;;5056407;28;20064;-72
2022/03/03 05:51:59;;;;;;;35.90;32.03;;;0.00;99.90;;;;;;5055875;28;20679;-72
2022/03/03 05:54:25;;;;;;;35.63;31.80;;;0.00;99.90;;;;;;5056238;28;20136;-72
2022/03/03 05:56:53;;;;;;;36.90;31.00;;;0.00;99.90;;;;;;5056181;28;20077;-72
2022/03/03 05:59:23;;;;;;;34.97;31.17;;;0.00;99.90;;;;;;5056134;28;20045;-72
2022/03/03 06:01:49;;;;;;;35.80;31.98;;;0.00;99.90;;;;;;5056106;28;20088;-72
2022/03/03 06:04:16;;;;;;;38.23;34.10;;;0.00;99.90;;;;;;5055647;28;20049;-72
2022/03/03 06:06:54;;;;;;;37.38;33.38;;;0.00;99.90;;;;;;5055766;28;20479;-72
2022/03/03 06:09:25;;;;;;;36.20;32.40;;;0.00;99.90;;;;;;5055994;28;20053;-72
2022/03/03 06:12:06;;;;;;;35.37;31.67;;;-0.10;99.90;;;;;;5056101;28;20045;-72
2022/03/03 06:14:46;;;;;;;36.08;31.23;;;-0.10;99.90;;;;;;5056004;28;20045;-72
2022/03/03 06:17:13;;;;;;;36.85;32.92;;;-0.10;99.90;;;;;;5055434;28;20037;-72
2022/03/03 06:19:41;;;;;;;36.57;32.57;;;-0.10;99.90;;;;;;5055795;28;20128;-72
2022/03/03 06:22:08;;;;;;;37.43;33.00;;;-0.20;99.90;;;;;;5055422;28;20566;-72
2022/03/03 06:24:34;;;;;;;35.93;32.13;;;-0.20;99.90;;;;;;5055575;28;20048;-72
2022/03/03 06:27:00;;;;;;;36.77;32.77;;;-0.20;99.90;;;;;;5055230;28;20045;-72
2022/03/03 06:29:26;;;;;;;36.50;32.40;;;-0.20;99.90;;;;;;5055620;28;20175;-72
2022/03/03 06:31:52;;;;;;;37.03;32.78;;;-0.20;99.90;;;;;;5055597;28;20077;-72
2022/03/03 06:34:20;;;;;;;37.92;33.00;;;-0.20;99.90;;;;;;5054836;28;20478;-72
2022/03/03 06:36:46;;;;;;;35.17;31.43;;;-0.10;99.90;;;;;;5037757;28;20049;-72
2022/03/03 06:39:12;;;;;;;36.58;31.80;;;-0.10;99.90;;;;;;5054904;28;20052;-72
2022/03/03 06:41:38;;;;;;;34.67;31.00;;;-0.10;99.90;;;;;;5055331;28;20041;-72
2022/03/03 06:44:04;;;;;;;37.97;32.63;;;-0.10;99.90;;;;;;5054622;28;20059;-72
2022/03/03 06:46:29;;;;;;;36.50;32.05;;;-0.10;99.90;;;;;;5055239;28;20066;-72
2022/03/03 06:48:55;;;;;;;36.77;32.80;;;0.00;99.90;;;;;;5054797;28;20075;-72
2022/03/03 06:51:22;;;;;;;35.93;32.13;;;0.00;99.90;;;;;;5050439;28;20049;-73
2022/03/03 06:53:53;;;;;;;34.97;30.87;;;0.10;99.90;;;;;;5055219;28;20041;-73
2022/03/03 06:56:20;;;;;;;;;;;0.20;99.90;;;;;;5055090;28;20653;-73
2022/03/03 06:58:47;;;;;;;34.33;30.73;;;0.20;99.90;;;;;;5037494;28;20343;-73
2022/03/03 07:01:12;;;;;;;34.90;31.23;;;0.20;99.90;;;;;;5054602;28;20064;-73
2022/03/03 07:03:41;;;;;;;33.70;30.10;;;0.30;99.90;;;;;;5055227;28;20045;-73
2022/03/03 07:06:06;;;;;;;33.87;30.17;;;0.40;99.90;;;;;;5036932;28;20060;-73
2022/03/03 07:08:33;;;;;;;33.53;27.77;;;1.10;99.90;;;;;;5054985;28;20044;-73
2022/03/03 07:11:00;;;;;;;31.50;28.23;;;1.90;99.90;;;;;;5054778;28;20097;-73
2022/03/03 07:13:26;;;;;;;31.77;28.42;;;2.40;99.90;;;;;;5054508;28;20045;-74
2022/03/03 07:15:54;;;;;;;31.35;28.00;;;2.70;99.90;;;;;;5054762;28;20505;-73
2022/03/03 07:18:32;;;;;;;29.77;26.58;;;2.80;99.90;;;;;;5054306;28;20053;-74
2022/03/03 07:21:20;;;;;;;28.98;25.98;;;3.10;99.90;;;;;;5054587;28;20045;-73
2022/03/03 07:24:00;;;;;;;30.35;27.13;;;3.50;99.90;;;;;;5020630;28;20132;-73
2022/03/03 07:26:26;;;;;;;31.08;27.63;;;3.50;99.30;;;;;;5054304;28;20040;-73
2022/03/03 07:28:54;;;;;;;30.67;27.58;;;3.40;99.70;;;;;;5020581;28;20052;-73
2022/03/03 07:31:23;;;;;;;31.00;27.60;;;3.10;99.90;;;;;;5053977;28;20091;-73
2022/03/03 07:33:57;;;;;;;31.45;28.05;;;2.90;99.90;;;;;;5054423;28;20155;-73
2022/03/03 07:36:28;;;;;;;30.55;27.48;;;2.80;99.90;;;;;;5053920;28;20083;-73
2022/03/03 07:39:06;;;;;;;30.15;27.05;;;2.60;99.90;;;;;;5054308;28;20041;-73
2022/03/03 07:41:32;;;;;;;32.05;28.20;;;2.50;99.90;;;;;;5054285;28;20072;-73
2022/03/03 07:43:59;;;;;;;30.13;26.60;;;2.50;99.90;;;;;;5054211;28;20492;-73
2022/03/03 07:46:26;;;;;;;30.35;27.17;;;2.40;99.90;;;;;;5053741;28;20041;-73
2022/03/03 07:48:53;;;;;;;31.17;27.88;;;2.40;99.90;;;;;;5054210;28;20037;-73
2022/03/03 07:51:19;;;;;;;31.80;28.40;;;2.30;99.90;;;;;;5023018;28;20504;-73
2022/03/03 07:53:45;;;;;;;30.50;27.10;;;2.40;99.90;;;;;;5014334;28;20060;-73
2022/03/03 07:56:21;;;;;;;29.23;26.13;;;2.40;99.90;;;;;;5013814;28;20047;-73
2022/03/03 07:58:50;;;;;;;29.48;26.50;;;2.40;99.90;;;;;;5013070;28;20060;-73
2022/03/03 08:01:17;;;;;;;30.25;26.95;;;2.50;99.90;;;;;;5012782;28;20399;-73
2022/03/03 08:03:46;;;;;;;29.58;26.58;;;2.60;99.90;;;;;;5014157;28;20045;-73
2022/03/03 08:06:14;;;;;;;29.52;26.38;;;2.70;99.90;;;;;;5013563;28;20119;-73
2022/03/03 08:08:41;;;;;;;30.00;26.80;;;2.70;99.90;;;;;;5014095;28;20402;-73
2022/03/03 08:11:09;;;;;;;28.90;25.90;;;2.70;99.90;;;;;;5013993;28;20042;-73
2022/03/03 08:13:36;;;;;;;30.45;26.83;;;2.70;99.90;;;;;;5013823;28;20487;-73
2022/03/03 08:16:02;;;;;;;29.00;26.00;;;2.70;99.90;;;;;;5013593;28;20124;-73
2022/03/03 08:18:35;;;;;;;29.05;26.05;;;2.80;99.90;;;;;;5013252;28;20590;-72
2022/03/03 08:21:04;;;;;;;28.63;25.73;;;2.80;99.90;;;;;;5014061;28;20053;-72
2022/03/03 08:23:31;;;;;;;28.65;25.70;;;2.90;99.90;;;;;;5013309;28;20057;-73
2022/03/03 08:26:02;;;;;;;28.70;25.58;;;2.90;99.90;;;;;;5010473;28;20648;-73
2022/03/03 08:28:28;;;;;;;;;;;2.90;99.90;;;;;;5009927;28;20053;-73
2022/03/03 08:30:58;;;;;;;28.52;25.58;;;3.00;99.90;;;;;;5009367;28;19921;-73
2022/03/03 08:33:46;;;;;;;27.10;24.27;;;3.00;99.90;;;;;;5011001;28;20049;-73
2022/03/03 08:36:25;;;;;;;28.95;25.88;;;3.10;99.60;;;;;;5010834;28;20050;-73
2022/03/03 08:38:53;;;;;;;28.63;25.27;;;3.20;99.60;;;;;;5011246;28;20042;-73
2022/03/03 08:41:23;;;;;;;29.48;26.33;;;3.30;99.70;;;;;;5011292;28;20045;-73
2022/03/03 08:43:52;;;;;;;28.13;25.27;;;3.40;99.90;;;;;;5011155;28;20077;-73
2022/03/03 08:46:26;;;;;;;27.08;24.38;;;3.50;98.50;;;;;;5011237;28;20048;-73
2022/03/03 08:48:53;;;;;;;28.10;25.25;;;3.70;97.00;;;;;;5011503;28;20085;-74
2022/03/03 08:51:19;;;;;;;27.00;24.25;;;4.00;97.40;;;;;;5028840;28;20584;-73
2022/03/03 08:53:48;;;;;;;26.25;23.42;;;4.30;95.70;;;;;;5051120;28;20151;-74
2022/03/03 08:56:14;;;;;;;26.80;23.95;;;4.60;93.60;;;;;;5050339;28;20037;-74
2022/03/03 08:58:40;;;;;;;26.10;23.30;;;4.90;93.60;;;;;;5050489;28;20041;-74
2022/03/03 09:01:05;;;;;;;26.05;23.40;;;5.20;91.80;;;;;;5050658;28;20410;-74
2022/03/03 09:03:32;;;;;;;25.70;23.17;;;5.50;91.00;;;;;;5050459;28;20055;-73
2022/03/03 09:05:57;;;;;;;26.17;23.50;;;5.90;91.30;;;;;;5050235;28;20494;-74
2022/03/03 09:08:24;;;;;;;26.20;23.60;;;6.20;88.30;;;;;;5050471;28;20365;-74
2022/03/03 09:10:50;;;;;;;24.70;22.08;;;6.60;84.40;;;;;;5033172;28;20072;-74
2022/03/03 09:13:16;;;;;;;24.40;22.00;;;6.80;81.80;;;;;;5032280;28;20045;-73
2022/03/03 09:15:42;;;;;;;24.40;22.00;;;6.90;78.70;;;;;;5050845;28;20119;-74
2022/03/03 09:18:08;;;;;;;25.20;22.13;;;7.20;78.50;;;;;;5050819;28;20037;-74
2022/03/03 09:20:35;;;;;;;24.85;22.38;;;7.40;78.60;;;;;;5049922;28;20056;-74
2022/03/03 09:23:02;;;;;;;24.70;22.13;;;7.70;76.80;;;;;;5050744;28;20041;-74
2022/03/03 09:25:28;;;;;;;24.33;21.92;;;7.90;74.60;;;;;;5052123;28;20119;-74
2022/03/03 09:27:53;;;;;;;24.95;22.48;;;8.10;74.20;;;;;;5052770;28;20049;-74
2022/03/03 09:30:21;;;;;;;23.73;21.33;;;8.30;71.80;;;;;;5052325;28;20054;-74
2022/03/03 09:32:47;;;;;;;24.88;22.27;;;8.30;72.30;;;;;;5052692;28;20056;-73
2022/03/03 09:35:13;;;;;;;24.52;22.02;;;8.50;71.20;;;;;;5052553;28;20037;-74
2022/03/03 09:37:39;;;;;;;24.17;21.67;;;8.70;70.20;;;;;;5052184;28;20098;-74
2022/03/03 09:40:06;;;;;;;24.10;21.70;;;8.80;71.40;;;;;;5052572;28;20052;-74
2022/03/03 09:42:34;;;;;;;24.23;21.83;;;9.00;68.50;;;;;;5052244;28;20082;-73
2022/03/03 09:45:08;;;;;;;23.45;21.05;;;9.30;69.80;;;;;;5052395;28;20064;-74
2022/03/03 09:47:35;;;;;;;24.13;21.83;;;9.30;68.70;;;;;;5052293;28;20402;-73
2022/03/03 09:50:01;;;;;;;25.00;22.52;;;9.30;67.00;;;;;;5052583;28;20053;-74
2022/03/03 09:52:28;;;;;;;23.88;21.52;;;9.40;68.80;;;;;;5034128;28;20132;-74
2022/03/03 09:54:55;;;;;;;23.08;20.77;;;9.50;67.00;;;;;;5052313;28;20045;-74
2022/03/03 09:57:21;;;;;;;23.55;21.25;;;9.50;66.10;;;;;;5052070;28;20041;-74
2022/03/03 09:59:47;;;;;;;23.83;21.33;;;9.60;66.00;;;;;;5052212;28;20478;-74
2022/03/03 10:02:13;;;;;;;24.17;21.77;;;9.70;65.60;;;;;;5052417;28;20107;-74
2022/03/03 10:04:40;;;;;;;23.83;21.50;;;9.70;65.30;;;;;;5052019;28;20447;-74
2022/03/03 10:07:07;;;;;;;23.50;21.15;;;9.80;64.90;;;;;;5052085;28;20474;-74
2022/03/03 10:09:59;;;;;;;24.35;21.95;;;9.90;64.20;;;;;;5052053;28;20052;-73
2022/03/03 10:12:24;;;;;;;23.95;21.55;;;9.90;66.60;;;;;;5051243;28;20391;-74
2022/03/03 10:14:55;;;;;;;22.92;20.75;;;9.90;64.60;;;;;;5052383;28;20045;-74
2022/03/03 10:17:22;;;;;;;23.85;21.55;;;9.90;63.20;;;;;;5051953;28;20072;-73
2022/03/03 10:19:53;;;;;;;23.30;21.00;;;9.80;63.30;;;;;;5052348;28;20053;-73
2022/03/03 10:22:43;;;;;;;24.27;21.88;;;9.70;63.10;;;;;;5052329;28;20048;-74
2022/03/03 10:25:11;;;;;;;22.52;20.35;;;9.50;62.30;;;;;;5055127;28;20126;-74
2022/03/03 10:27:37;;;;;;;22.40;20.30;;;9.40;61.60;;;;;;5055614;28;20064;-74
2022/03/03 10:30:06;;;;;;;22.90;20.58;;;9.30;61.60;;;;;;5055931;28;20589;-74
2022/03/03 10:32:35;;;;;;;22.83;20.58;;;9.30;60.60;;;;;;5055556;28;20111;-74
2022/03/03 10:35:12;;;;;;;22.63;20.42;;;9.20;62.30;;;;;;5055449;28;20498;-74
2022/03/03 10:37:37;;;;;;;21.95;19.80;;;9.20;62.90;;;;;;5055345;28;20064;-74
2022/03/03 10:40:03;;;;;;;22.42;20.33;;;9.30;63.60;;;;;;5037982;28;20482;-74
2022/03/03 10:42:29;;;;;;;22.27;20.08;;;9.30;63.10;;;;;;5055234;28;20037;-74
2022/03/03 10:45:11;;;;;;;21.35;19.25;;;9.30;63.00;;;;;;5055694;28;20470;-74
2022/03/03 10:47:37;;;;;;;20.55;18.48;;;9.30;59.20;;;;;;5055258;28;20037;-74
2022/03/03 10:50:03;;;;;;;20.20;18.20;;;9.20;60.50;;;;;;5055194;28;20428;-74
2022/03/03 10:52:33;;;;;;;21.23;19.13;;;9.20;59.80;;;;;;5054857;28;20060;-74
2022/03/03 10:55:07;;;;;;;21.33;19.20;;;9.10;60.00;;;;;;5055431;28;20202;-74
2022/03/03 10:57:42;;;;;;;21.23;19.10;;;9.10;59.70;;;;;;5055019;28;20040;-74
2022/03/03 11:00:14;;;;;;;22.17;20.00;;;9.10;60.50;;;;;;5055559;28;20091;-73
2022/03/03 11:02:43;;;;;;;21.38;19.17;;;9.00;60.40;;;;;;5054981;28;20094;-74
2022/03/03 11:05:11;;;;;;;21.42;19.42;;;9.10;61.10;;;;;;5055233;28;20037;-74
2022/03/03 11:07:41;;;;;;;21.65;19.55;;;9.00;61.30;;;;;;5054569;28;20547;-74
2022/03/03 11:10:09;;;;;;;21.42;19.17;;;9.10;62.30;;;;;;5055293;28;20048;-74
2022/03/03 11:12:35;;;;;;;20.52;18.52;;;9.00;61.60;;;;;;5054737;28;20041;-74
2022/03/03 11:15:03;;;;;;;19.92;18.00;;;9.00;63.00;;;;;;5055146;28;20048;-74
2022/03/03 11:17:29;;;;;;;20.67;18.58;;;9.00;60.90;;;;;;5054618;28;20044;-74
2022/03/03 11:19:59;;;;;;;20.30;18.30;;;9.10;61.50;;;;;;5037234;28;20041;-74
2022/03/03 11:22:26;;;;;;;19.92;17.92;;;9.10;61.60;;;;;;5054966;28;20040;-74
2022/03/03 11:24:52;;;;;;;19.77;17.80;;;9.20;62.50;;;;;;5054514;28;20118;-74
2022/03/03 11:27:18;;;;;;;20.90;18.65;;;9.20;61.30;;;;;;5054743;28;20041;-74
2022/03/03 11:30:14;;;;;;;19.35;17.35;;;9.30;62.10;;;;;;5054280;28;20040;-74
2022/03/03 11:32:40;;;;;;;21.05;18.90;;;9.30;60.50;;;;;;5054055;28;20053;-74
2022/03/03 11:35:08;;;;;;;19.60;17.60;;;9.40;62.70;;;;;;5035651;28;20052;-74
2022/03/03 11:37:42;;;;;;;19.88;17.83;;;9.40;61.80;;;;;;5053979;28;20049;-74
2022/03/03 11:40:12;;;;;;;19.25;17.35;;;9.50;60.10;;;;;;5054354;28;20045;-74
2022/03/03 11:42:53;;;;;;;19.23;17.23;;;9.50;61.00;;;;;;5036243;28;20057;-73
2022/03/03 11:45:28;;;;;;;18.25;16.48;;;9.50;60.80;;;;;;5054467;28;20041;-74
2022/03/03 11:48:10;;;;;;;18.00;16.30;;;9.40;59.80;;;;;;5053830;28;20071;-73
2022/03/03 11:50:35;;;;;;;18.02;16.15;;;9.50;59.60;;;;;;5053616;28;20041;-73
2022/03/03 11:53:02;;;;;;;17.15;15.43;;;9.40;59.40;;;;;;5054263;28;20057;-74
2022/03/03 11:55:41;;;;;;;17.48;15.77;;;9.40;58.50;;;;;;5036177;28;20406;-73
2022/03/03 11:58:20;;;;;;;17.17;15.48;;;9.40;61.10;;;;;;5053091;28;20183;-73
2022/03/03 12:00:57;;;;;;;16.80;15.10;;;9.50;61.50;;;;;;5053274;28;20045;-73
2022/03/03 12:03:23;;;;;;;16.48;14.77;;;9.60;61.80;;;;;;5053922;28;20044;-73
2022/03/03 12:06:08;;;;;;;16.40;14.80;;;9.60;61.10;;;;;;5053148;28;20493;-73
2022/03/03 12:08:39;;;;;;;16.92;15.25;;;9.60;59.50;;;;;;5053672;28;20037;-74
2022/03/03 12:11:11;;;;;;;16.20;14.63;;;9.60;60.60;;;;;;5053861;28;20434;-74
2022/03/03 12:13:40;;;;;;;16.02;14.48;;;9.70;60.20;;;;;;5052830;28;20556;-73
2022/03/03 12:16:16;;;;;;;15.52;14.02;;;9.70;59.20;;;;;;5053615;28;20047;-73
2022/03/03 12:18:43;;;;;;;15.88;14.27;;;9.70;59.90;;;;;;5053113;28;20076;-73
2022/03/03 12:21:27;;;;;;;17.27;15.45;;;9.70;59.90;;;;;;5053808;28;20048;-73
2022/03/03 12:24:14;;;;;;;17.52;15.73;;;9.80;60.50;;;;;;5052687;28;20448;-72
2022/03/03 12:26:55;;;;;;;18.48;16.67;;;9.80;59.90;;;;;;5053053;28;20055;-73
2022/03/03 12:29:34;;;;;;;18.48;16.58;;;9.90;61.90;;;;;;5053313;28;20131;-73
2022/03/03 12:32:25;;;;;;;18.95;17.13;;;9.90;62.30;;;;;;5035325;28;20049;-73
2022/03/03 12:34:56;;;;;;;18.20;16.27;;;9.90;61.20;;;;;;5052569;28;20490;-73
2022/03/03 12:37:21;;;;;;;18.38;16.67;;;9.80;60.90;;;;;;5053396;28;20398;-73
2022/03/03 12:39:53;;;;;;;19.08;17.17;;;9.80;60.80;;;;;;5052787;28;20053;-73
2022/03/03 12:42:25;;;;;;;19.95;17.92;;;9.80;61.70;;;;;;5053253;28;20454;-73